Time;durP1;ratioP1;P1;durP2;ratioP2;P2;SDS_P1;SDS_P2;PMS_P1;PMS_P2;Temp;Humidity;BMP_temperature;BMP_pressure;BME280_temperature;BME280_humidity;BME280_pressure;Samples;Min_cycle;Max_cycle;Signal;HPM_P1;HPM_P2
2022/01/15 00:01:04;;;;;;;15.40;6.57;;;6.80;99.90;;;;;;5074961;28;20432;-77
2022/01/15 00:03:29;;;;;;;17.90;7.93;;;6.70;99.90;;;;;;5089182;28;20096;-76
2022/01/15 00:05:55;;;;;;;17.30;6.93;;;6.70;99.90;;;;;;5063558;28;20043;-77
2022/01/15 00:08:22;;;;;;;19.02;7.60;;;6.70;99.90;;;;;;5080084;28;20036;-77
2022/01/15 00:10:48;;;;;;;21.30;8.18;;;6.70;99.90;;;;;;5061442;28;20131;-77
2022/01/15 00:13:24;;;;;;;16.85;7.88;;;6.60;99.90;;;;;;5085470;28;20048;-77
2022/01/15 00:16:01;;;;;;;20.60;7.95;;;6.70;99.90;;;;;;5065760;28;20051;-76
2022/01/15 00:18:40;;;;;;;24.38;8.30;;;6.70;99.90;;;;;;5058121;28;20743;-77
2022/01/15 00:21:07;;;;;;;19.90;8.18;;;6.60;99.90;;;;;;5079286;28;20044;-77
2022/01/15 00:23:32;;;;;;;15.38;7.80;;;6.60;99.90;;;;;;5091702;28;20071;-78
2022/01/15 00:25:58;;;;;;;16.27;8.43;;;6.60;99.90;;;;;;5092814;28;20409;-77
2022/01/15 00:28:24;;;;;;;17.92;8.45;;;6.60;99.90;;;;;;5067607;28;20071;-76
2022/01/15 00:30:49;;;;;;;19.02;8.05;;;6.60;99.90;;;;;;5080459;28;20040;-76
2022/01/15 00:33:15;;;;;;;24.30;9.30;;;6.60;99.90;;;;;;5038318;28;20072;-76
2022/01/15 00:35:41;;;;;;;21.25;9.43;;;6.60;99.90;;;;;;5040165;28;20044;-76
2022/01/15 00:38:06;;;;;;;20.73;9.32;;;6.60;99.90;;;;;;5067633;28;20532;-77
2022/01/15 00:40:32;;;;;;;21.55;8.77;;;6.60;99.90;;;;;;5075742;28;20052;-77
2022/01/15 00:42:58;;;;;;;21.83;9.07;;;6.60;99.90;;;;;;5084585;28;20098;-77
2022/01/15 00:45:24;;;;;;;17.20;8.85;;;6.60;99.90;;;;;;5094641;28;20130;-77
2022/01/15 00:47:51;;;;;;;17.55;9.05;;;6.70;99.90;;;;;;5085165;28;20044;-77
2022/01/15 00:50:18;;;;;;;22.33;9.55;;;6.70;99.90;;;;;;5072234;28;20055;-76
2022/01/15 00:52:44;;;;;;;29.50;10.75;;;6.70;99.90;;;;;;5077196;28;20047;-78
2022/01/15 00:55:12;;;;;;;25.98;11.38;;;6.70;99.90;;;;;;5086267;28;20048;-76
2022/01/15 00:57:38;;;;;;;25.33;11.15;;;6.60;99.90;;;;;;5078839;28;20060;-77
2022/01/15 01:00:06;;;;;;;26.40;10.75;;;6.60;99.90;;;;;;5093356;28;20052;-76
2022/01/15 01:02:32;;;;;;;24.05;10.25;;;6.60;99.90;;;;;;5064432;28;20614;-77
2022/01/15 01:04:57;;;;;;;26.15;10.40;;;6.70;99.90;;;;;;5112484;28;20131;-77
2022/01/15 01:07:23;;;;;;;30.95;11.10;;;6.60;99.90;;;;;;5108123;28;20408;-76
2022/01/15 01:23:21;;;;;;;29.23;10.80;;;6.60;99.90;;;;;;5113246;28;20058;-77
2022/01/15 01:25:50;;;;;;;29.52;11.60;;;6.60;99.90;;;;;;5074860;28;20051;-77
2022/01/15 01:28:27;;;;;;;28.20;11.43;;;6.60;99.90;;;;;;5073358;28;20047;-77
2022/01/15 01:31:11;;;;;;;;;;;6.60;99.90;;;;;;5085853;28;20043;-77
2022/01/15 01:33:41;;;;;;;28.63;9.38;;;6.60;99.90;;;;;;5083649;28;20338;-77
2022/01/15 01:39:07;;;;;;;31.05;10.27;;;6.60;99.90;;;;;;5094383;28;20047;-77
2022/01/15 01:41:36;;;;;;;28.17;9.82;;;6.60;99.90;;;;;;5083998;28;20052;-78
2022/01/15 01:44:04;;;;;;;24.58;8.85;;;6.60;99.90;;;;;;5103610;28;20678;-76
2022/01/15 01:46:40;;;;;;;27.23;9.48;;;6.60;99.90;;;;;;5088175;28;20048;-77
2022/01/15 01:49:12;;;;;;;26.85;10.18;;;6.60;99.90;;;;;;5062543;28;20056;-77
2022/01/15 01:51:41;;;;;;;33.42;9.40;;;6.60;99.90;;;;;;5067608;28;20071;-77
2022/01/15 01:54:09;;;;;;;22.25;9.27;;;6.50;99.90;;;;;;5077340;28;20094;-77
2022/01/15 01:56:36;;;;;;;22.95;8.88;;;6.50;99.90;;;;;;5090640;28;20405;-77
2022/01/15 01:59:04;;;;;;;26.70;9.18;;;6.50;99.90;;;;;;5076059;28;20047;-77
2022/01/15 02:01:29;;;;;;;17.80;7.85;;;6.50;99.90;;;;;;5111944;28;20050;-76
2022/01/15 02:03:55;;;;;;;21.00;8.50;;;6.50;99.90;;;;;;5090000;28;20040;-77
2022/01/15 02:06:21;;;;;;;23.70;8.38;;;6.50;99.90;;;;;;5075443;28;20105;-78
2022/01/15 02:08:49;;;;;;;17.70;7.70;;;6.50;99.90;;;;;;5071729;28;20043;-77
2022/01/15 02:11:15;;;;;;;18.55;7.55;;;6.40;99.90;;;;;;5093376;28;20587;-76
2022/01/15 02:13:44;;;;;;;21.92;8.75;;;6.50;99.90;;;;;;5076881;28;20532;-77
2022/01/15 02:16:10;;;;;;;22.00;8.35;;;6.50;99.90;;;;;;5092517;28;20071;-76
2022/01/15 02:18:36;;;;;;;21.98;7.63;;;6.40;99.90;;;;;;5088340;28;20055;-77
2022/01/15 02:23:44;;;;;;;21.63;8.27;;;6.50;99.90;;;;;;5079252;28;20048;-77
2022/01/15 02:26:18;;;;;;;23.05;8.18;;;6.40;99.90;;;;;;5076624;28;20086;-77
2022/01/15 02:28:50;;;;;;;23.08;7.72;;;6.40;99.90;;;;;;5082672;28;20075;-76
2022/01/15 02:31:17;;;;;;;22.42;8.07;;;6.40;99.90;;;;;;5086582;28;20389;-76
2022/01/15 02:33:45;;;;;;;24.42;7.53;;;6.40;99.90;;;;;;5078225;28;20040;-77
2022/01/15 02:36:16;;;;;;;24.45;8.30;;;6.40;99.90;;;;;;5074539;28;20043;-76
2022/01/15 02:38:42;;;;;;;22.35;8.02;;;6.40;99.90;;;;;;5109108;28;20065;-76
2022/01/15 02:41:09;;;;;;;18.63;8.07;;;6.40;99.90;;;;;;5090407;28;20087;-77
2022/01/15 02:43:36;;;;;;;24.73;8.73;;;6.40;99.90;;;;;;5107670;28;20091;-76
2022/01/15 02:46:46;;;;;;;20.65;8.13;;;6.40;99.90;;;;;;5074016;28;20071;-77
2022/01/15 02:49:00;;;;;;;23.15;8.38;;;6.40;99.90;;;;;;5088500;28;20127;-77
2022/01/15 02:51:29;;;;;;;22.75;7.82;;;6.40;99.90;;;;;;5094621;28;20044;-77
2022/01/15 02:53:55;;;;;;;20.30;8.13;;;6.40;99.90;;;;;;5080873;28;20040;-77
2022/01/15 02:56:34;;;;;;;23.92;8.07;;;6.40;99.90;;;;;;5073867;28;20055;-77
2022/01/15 02:59:02;;;;;;;22.23;8.70;;;6.40;99.90;;;;;;5088399;28;20088;-77
2022/01/15 03:01:29;;;;;;;20.00;7.10;;;6.40;99.90;;;;;;5110896;28;20067;-76
2022/01/15 03:03:54;;;;;;;21.83;8.10;;;6.40;99.90;;;;;;5106305;28;20047;-76
2022/01/15 03:06:20;;;;;;;20.25;7.70;;;6.30;99.90;;;;;;5083096;28;20044;-76
2022/01/15 03:08:48;;;;;;;16.92;6.95;;;6.40;99.90;;;;;;5078008;28;20043;-77
2022/01/15 03:11:14;;;;;;;21.70;7.60;;;6.40;99.90;;;;;;5073684;28;20106;-77
2022/01/15 03:13:42;;;;;;;17.10;6.47;;;6.30;99.90;;;;;;5056635;28;20500;-77
2022/01/15 03:16:11;;;;;;;17.48;7.05;;;6.30;99.90;;;;;;5087235;28;20061;-77
2022/01/15 03:18:36;;;;;;;22.80;7.50;;;6.30;99.90;;;;;;5085325;28;20047;-77
2022/01/15 03:21:03;;;;;;;16.80;6.85;;;6.30;99.90;;;;;;5088811;28;20276;-78
2022/01/15 03:23:28;;;;;;;15.68;6.18;;;6.30;99.90;;;;;;5072584;28;20082;-77
2022/01/15 03:25:54;;;;;;;14.45;5.60;;;6.20;99.90;;;;;;5074817;28;20072;-76
2022/01/15 03:28:20;;;;;;;12.85;5.88;;;6.20;99.90;;;;;;5092358;28;20043;-76
2022/01/15 03:30:45;;;;;;;10.77;5.30;;;6.30;99.90;;;;;;5055531;28;20040;-76
2022/01/15 03:33:11;;;;;;;16.42;6.38;;;6.20;99.90;;;;;;5072009;28;20048;-78
2022/01/15 03:35:38;;;;;;;12.88;5.25;;;6.20;99.90;;;;;;5055707;28;20078;-76
2022/01/15 03:38:04;;;;;;;12.95;5.32;;;6.20;99.90;;;;;;5088827;28;20036;-77
2022/01/15 03:40:31;;;;;;;12.80;4.95;;;6.20;99.90;;;;;;5091382;28;20051;-76
2022/01/15 03:42:57;;;;;;;11.50;5.15;;;6.30;99.90;;;;;;5087653;28;20067;-76
2022/01/15 03:45:24;;;;;;;11.95;5.13;;;6.20;99.90;;;;;;5091178;28;20060;-76
2022/01/15 03:47:50;;;;;;;11.30;4.85;;;6.10;99.90;;;;;;5094640;28;20131;-76
2022/01/15 03:50:16;;;;;;;15.45;5.22;;;6.10;99.90;;;;;;5082858;28;20119;-76
2022/01/15 03:52:42;;;;;;;15.40;5.72;;;6.10;99.90;;;;;;5085210;28;20336;-77
2022/01/15 03:55:10;;;;;;;16.13;5.60;;;6.10;99.90;;;;;;5072251;28;20512;-78
2022/01/15 03:57:36;;;;;;;14.95;5.43;;;6.10;99.90;;;;;;5089225;28;20093;-76
2022/01/15 04:00:09;;;;;;;10.90;4.90;;;6.10;99.90;;;;;;5051466;28;20058;-76
2022/01/15 04:02:34;;;;;;;15.38;6.10;;;6.10;99.90;;;;;;5090669;28;20045;-76
2022/01/15 04:05:00;;;;;;;12.10;5.32;;;6.10;99.90;;;;;;5084047;28;20129;-78
2022/01/15 04:07:26;;;;;;;13.43;5.70;;;6.10;99.90;;;;;;5070695;28;20044;-79
2022/01/15 04:09:51;;;;;;;13.57;5.68;;;6.10;99.90;;;;;;5105648;28;20051;-77
2022/01/15 04:12:17;;;;;;;14.65;5.80;;;6.10;99.90;;;;;;5078774;28;20057;-76
2022/01/15 04:14:43;;;;;;;11.95;5.65;;;6.10;99.90;;;;;;5056260;28;20052;-76
2022/01/15 04:17:08;;;;;;;13.63;6.43;;;6.10;99.90;;;;;;5090778;28;20393;-76
2022/01/15 04:19:35;;;;;;;14.85;5.97;;;6.10;99.90;;;;;;5088704;28;20381;-77
2022/01/15 04:22:02;;;;;;;17.55;5.80;;;6.10;99.90;;;;;;5094578;28;20056;-77
2022/01/15 04:24:27;;;;;;;11.98;5.57;;;6.10;99.90;;;;;;5070284;28;20087;-77
2022/01/15 04:26:53;;;;;;;14.10;5.47;;;6.10;99.90;;;;;;5063161;28;20086;-76
2022/01/15 04:29:21;;;;;;;14.27;5.00;;;6.10;99.90;;;;;;5040164;28;20100;-76
2022/01/15 04:31:50;;;;;;;13.80;5.88;;;6.10;99.90;;;;;;5080242;28;20053;-77
2022/01/15 04:34:21;;;;;;;11.63;5.15;;;6.10;99.90;;;;;;5067350;28;20492;-81
2022/01/15 04:36:48;;;;;;;10.10;5.00;;;6.10;99.90;;;;;;5095794;28;20048;-76
2022/01/15 04:39:14;;;;;;;10.35;4.40;;;6.10;99.90;;;;;;5078043;28;20508;-76
2022/01/15 04:41:40;;;;;;;8.07;4.07;;;6.10;99.90;;;;;;5111332;28;20047;-76
2022/01/15 04:44:06;;;;;;;10.25;4.82;;;6.10;99.90;;;;;;5081567;28;20056;-76
2022/01/15 04:46:37;;;;;;;13.73;6.35;;;6.10;99.90;;;;;;5094227;28;20553;-77
2022/01/15 04:49:05;;;;;;;11.55;5.00;;;6.10;99.90;;;;;;5087966;28;20051;-77
2022/01/15 04:51:31;;;;;;;13.13;5.35;;;6.10;99.90;;;;;;5072134;28;20497;-76
2022/01/15 04:53:57;;;;;;;10.93;4.65;;;6.00;99.90;;;;;;5075531;28;20509;-76
2022/01/15 04:56:23;;;;;;;10.20;4.30;;;6.10;99.90;;;;;;5076129;28;20043;-78
2022/01/15 04:58:49;;;;;;;13.32;5.20;;;6.10;99.90;;;;;;5075231;28;20052;-76
2022/01/15 05:01:15;;;;;;;10.68;4.80;;;6.10;99.90;;;;;;5076097;28;20461;-76
2022/01/15 05:03:41;;;;;;;8.80;4.25;;;6.10;99.90;;;;;;5091872;28;20040;-76
2022/01/15 05:06:07;;;;;;;8.05;3.92;;;6.10;99.90;;;;;;5085443;28;20135;-76
2022/01/15 05:08:32;;;;;;;13.00;4.57;;;6.10;99.90;;;;;;5074484;28;20075;-77
2022/01/15 05:11:09;;;;;;;10.70;4.05;;;6.10;99.90;;;;;;5088250;28;20051;-77
2022/01/15 05:13:36;;;;;;;11.32;4.25;;;6.10;99.90;;;;;;5070330;28;20045;-76
2022/01/15 05:16:02;;;;;;;14.98;4.57;;;6.10;99.90;;;;;;5079125;28;20052;-76
2022/01/15 05:18:28;;;;;;;10.40;4.47;;;6.10;99.90;;;;;;5073878;28;20063;-76
2022/01/15 05:20:54;;;;;;;9.70;4.10;;;6.00;99.90;;;;;;5067437;28;20044;-76
2022/01/15 05:23:19;;;;;;;9.63;4.05;;;6.10;99.90;;;;;;5060140;28;20048;-76
2022/01/15 05:25:45;;;;;;;9.18;3.78;;;6.10;99.90;;;;;;5077875;28;20083;-76
2022/01/15 05:28:10;;;;;;;10.57;4.13;;;6.10;99.90;;;;;;5089339;28;20116;-76
2022/01/15 05:30:36;;;;;;;10.65;4.57;;;6.10;99.90;;;;;;5052779;28;20048;-77
2022/01/15 05:33:02;;;;;;;12.68;4.63;;;6.10;99.90;;;;;;5075603;28;20545;-76
2022/01/15 05:35:28;;;;;;;10.48;4.60;;;6.10;99.90;;;;;;5081164;28;20130;-77
2022/01/15 05:37:54;;;;;;;10.45;4.90;;;6.10;99.90;;;;;;5088613;28;20052;-76
2022/01/15 05:40:20;;;;;;;10.40;4.78;;;6.10;99.90;;;;;;5078618;28;20489;-76
2022/01/15 05:42:46;;;;;;;10.27;4.75;;;6.10;99.90;;;;;;5062269;28;20059;-76
2022/01/15 05:45:13;;;;;;;8.52;4.40;;;6.00;99.90;;;;;;5086878;28;20052;-76
2022/01/15 05:47:39;;;;;;;12.35;4.88;;;6.10;99.90;;;;;;5068093;28;20547;-78
2022/01/15 05:50:05;;;;;;;10.88;4.25;;;6.00;99.90;;;;;;5060931;28;20052;-76
2022/01/15 05:52:31;;;;;;;9.35;4.47;;;6.00;99.90;;;;;;5087169;28;20484;-76
2022/01/15 05:54:57;;;;;;;9.65;4.32;;;6.10;99.90;;;;;;5071663;28;20052;-76
2022/01/15 05:57:23;;;;;;;12.15;4.65;;;6.00;99.90;;;;;;5089762;28;20044;-76
2022/01/15 05:59:51;;;;;;;11.50;4.68;;;6.10;99.90;;;;;;5073660;28;20323;-77
2022/01/15 06:02:18;;;;;;;11.70;5.00;;;6.10;99.90;;;;;;5089376;28;20059;-76
2022/01/15 06:04:43;;;;;;;11.57;4.60;;;6.10;99.90;;;;;;5088323;28;20044;-75
2022/01/15 06:07:09;;;;;;;11.90;4.68;;;6.10;99.90;;;;;;5086902;28;20047;-76
2022/01/15 06:09:35;;;;;;;9.98;4.82;;;6.00;99.90;;;;;;5088262;28;20500;-76
2022/01/15 06:12:01;;;;;;;11.77;4.85;;;6.10;99.90;;;;;;5088975;28;20040;-76
2022/01/15 06:14:29;;;;;;;11.60;4.20;;;6.00;99.90;;;;;;5078422;28;20398;-76
2022/01/15 06:16:55;;;;;;;9.95;4.43;;;6.00;99.90;;;;;;5073084;28;20493;-76
2022/01/15 06:19:21;;;;;;;12.45;4.95;;;6.10;99.90;;;;;;5090329;28;20117;-76
2022/01/15 06:21:47;;;;;;;10.82;4.75;;;6.00;99.90;;;;;;5085241;28;20122;-76
2022/01/15 06:24:13;;;;;;;11.15;4.50;;;6.00;99.90;;;;;;5072157;28;20047;-77
2022/01/15 06:26:38;;;;;;;10.77;4.28;;;6.10;99.90;;;;;;5068048;28;20510;-77
2022/01/15 06:29:04;;;;;;;10.82;4.20;;;6.00;99.90;;;;;;5078310;28;20485;-76
2022/01/15 06:31:31;;;;;;;11.10;4.95;;;6.00;99.90;;;;;;5061335;28;20465;-76
2022/01/15 06:34:00;;;;;;;14.15;4.68;;;6.00;99.90;;;;;;5069477;28;20052;-76
2022/01/15 06:36:27;;;;;;;12.63;4.75;;;6.00;99.90;;;;;;5073562;28;20265;-75
2022/01/15 06:38:53;;;;;;;14.07;5.07;;;6.00;99.90;;;;;;5069247;28;20063;-76
2022/01/15 06:41:18;;;;;;;11.77;4.55;;;6.00;99.90;;;;;;5076496;28;20131;-76
2022/01/15 06:43:44;;;;;;;10.65;5.03;;;6.00;99.90;;;;;;5090604;28;20145;-76
2022/01/15 06:46:10;;;;;;;13.98;5.40;;;6.00;99.90;;;;;;5056012;28;20052;-76
2022/01/15 06:48:36;;;;;;;12.52;5.07;;;6.00;99.90;;;;;;5055748;28;20048;-81
2022/01/15 06:51:02;;;;;;;14.60;5.15;;;5.90;99.90;;;;;;5079056;28;20067;-77
2022/01/15 06:53:29;;;;;;;11.18;4.80;;;6.00;99.90;;;;;;5069291;28;20733;-77
2022/01/15 06:55:55;;;;;;;14.93;4.95;;;6.00;99.90;;;;;;5071902;28;20315;-76
2022/01/15 06:58:22;;;;;;;13.02;5.03;;;6.00;99.90;;;;;;5072331;28;20044;-76
2022/01/15 07:00:48;;;;;;;11.48;4.75;;;6.00;99.90;;;;;;5071505;28;20051;-76
2022/01/15 07:03:14;;;;;;;12.68;4.93;;;5.90;99.90;;;;;;5081689;28;20131;-76
2022/01/15 07:05:40;;;;;;;11.60;5.05;;;5.90;99.90;;;;;;5077413;28;20128;-76
2022/01/15 07:08:06;;;;;;;14.82;5.72;;;5.90;99.90;;;;;;5050818;28;20076;-76
2022/01/15 07:10:31;;;;;;;13.80;5.47;;;5.90;99.90;;;;;;5071134;28;20382;-77
2022/01/15 07:12:57;;;;;;;10.65;4.75;;;5.90;99.90;;;;;;5060985;28;20036;-76
2022/01/15 07:15:23;;;;;;;15.80;5.05;;;5.90;99.90;;;;;;5035984;28;20055;-76
2022/01/15 07:17:49;;;;;;;12.77;5.18;;;5.90;99.90;;;;;;5080385;28;20044;-77
2022/01/15 07:20:18;;;;;;;12.77;4.80;;;5.90;99.90;;;;;;5072107;28;20078;-76
2022/01/15 07:22:44;;;;;;;10.55;3.88;;;5.90;99.90;;;;;;5056376;28;20040;-76
2022/01/15 07:25:11;;;;;;;8.32;3.80;;;5.90;99.90;;;;;;5055812;28;20055;-76
2022/01/15 07:27:38;;;;;;;14.18;5.15;;;5.80;99.90;;;;;;5094680;28;20112;-77
2022/01/15 07:30:07;;;;;;;9.40;4.15;;;5.80;99.90;;;;;;5084479;28;20044;-75
2022/01/15 07:32:33;;;;;;;9.45;3.65;;;5.80;99.90;;;;;;5072862;28;20078;-77
2022/01/15 07:34:59;;;;;;;8.57;3.45;;;5.90;99.90;;;;;;5055346;28;20139;-76
2022/01/15 07:37:25;;;;;;;9.20;3.38;;;5.80;99.90;;;;;;5072208;28;20119;-76
2022/01/15 07:39:53;;;;;;;9.10;3.40;;;5.80;99.90;;;;;;5106391;28;20084;-77
2022/01/15 07:42:19;;;;;;;4.70;2.42;;;5.70;99.90;;;;;;5094373;28;20052;-77
2022/01/15 07:44:45;;;;;;;7.50;3.05;;;5.70;99.90;;;;;;5091160;28;20481;-76
2022/01/15 07:47:12;;;;;;;6.88;2.80;;;5.70;99.90;;;;;;5092183;28;20040;-77
2022/01/15 07:49:38;;;;;;;7.32;2.70;;;5.70;99.90;;;;;;5088708;28;20063;-77
2022/01/15 07:52:04;;;;;;;6.60;2.85;;;5.70;99.90;;;;;;5075087;28;20056;-77
2022/01/15 07:54:30;;;;;;;5.55;2.67;;;5.70;99.90;;;;;;5070455;28;20035;-77
2022/01/15 07:56:55;;;;;;;6.32;2.60;;;5.70;99.90;;;;;;5096793;28;20075;-76
2022/01/15 07:59:22;;;;;;;7.22;2.75;;;5.70;99.90;;;;;;5083448;28;20052;-76
2022/01/15 08:01:48;;;;;;;7.40;3.40;;;5.70;99.90;;;;;;5079334;28;20097;-77
2022/01/15 08:04:13;;;;;;;9.35;3.50;;;5.70;99.90;;;;;;5087166;28;20472;-76
2022/01/15 08:06:41;;;;;;;6.93;3.67;;;5.70;99.90;;;;;;5096747;28;20086;-77
2022/01/15 08:09:07;;;;;;;10.48;4.68;;;5.70;99.90;;;;;;5099354;28;20040;-77
2022/01/15 08:11:32;;;;;;;13.48;5.50;;;5.70;99.90;;;;;;5077522;28;20056;-78
2022/01/15 08:13:58;;;;;;;10.70;4.20;;;5.70;99.90;;;;;;5083670;28;20115;-76
2022/01/15 08:16:24;;;;;;;10.18;4.18;;;5.70;99.90;;;;;;5092752;28;20480;-76
2022/01/15 08:18:49;;;;;;;10.95;4.43;;;5.70;99.90;;;;;;5094394;28;20076;-80
2022/01/15 08:21:15;;;;;;;12.55;5.50;;;5.70;99.90;;;;;;5085136;28;20449;-76
2022/01/15 08:23:41;;;;;;;11.80;5.05;;;5.70;99.90;;;;;;5075947;28;20802;-76
2022/01/15 08:26:07;;;;;;;12.40;5.00;;;5.70;99.90;;;;;;5071328;28;20538;-77
2022/01/15 08:28:33;;;;;;;13.25;6.43;;;5.70;99.90;;;;;;5080620;28;20124;-77
2022/01/15 08:30:59;;;;;;;18.40;7.63;;;5.80;99.90;;;;;;5080781;28;20051;-76
2022/01/15 08:33:25;;;;;;;18.58;7.40;;;5.70;99.90;;;;;;5070997;28;20048;-75
2022/01/15 08:35:50;;;;;;;15.68;7.25;;;5.70;99.90;;;;;;5099888;28;20048;-80
2022/01/15 08:38:16;;;;;;;22.60;9.68;;;5.70;99.90;;;;;;5063093;28;20070;-75
2022/01/15 08:40:42;;;;;;;17.27;7.50;;;5.70;99.90;;;;;;5088055;28;20040;-76
2022/01/15 08:43:08;;;;;;;20.85;8.65;;;5.70;99.90;;;;;;5084293;28;20087;-76
2022/01/15 08:45:36;;;;;;;19.13;8.20;;;5.80;99.90;;;;;;5091908;28;20059;-76
2022/01/15 08:48:02;;;;;;;20.05;7.90;;;5.70;99.90;;;;;;5099748;28;20056;-78
2022/01/15 08:50:28;;;;;;;16.05;7.68;;;5.70;99.90;;;;;;5075947;28;20050;-77
2022/01/15 08:52:53;;;;;;;17.38;8.20;;;5.70;99.90;;;;;;5083243;28;20110;-82
2022/01/15 08:55:20;;;;;;;16.77;8.02;;;5.70;99.90;;;;;;5084021;28;20044;-76
2022/01/15 08:57:46;;;;;;;18.58;7.57;;;5.70;99.90;;;;;;5083964;28;20059;-76
2022/01/15 09:00:15;;;;;;;16.33;7.70;;;5.70;99.90;;;;;;5081897;28;20043;-77
2022/01/15 09:02:41;;;;;;;16.05;7.82;;;5.70;99.90;;;;;;5105686;28;20555;-76
2022/01/15 09:05:10;;;;;;;18.73;8.63;;;5.70;99.90;;;;;;5085141;28;20045;-76
2022/01/15 09:07:36;;;;;;;23.60;9.43;;;5.60;99.90;;;;;;5089446;28;20075;-76
2022/01/15 09:10:03;;;;;;;21.40;9.75;;;5.70;99.90;;;;;;5111422;28;20082;-76
2022/01/15 09:12:29;;;;;;;21.45;9.52;;;5.60;99.90;;;;;;5109144;28;20048;-75
2022/01/15 09:14:58;;;;;;;22.25;9.27;;;5.70;99.90;;;;;;5094193;28;20062;-83
2022/01/15 09:17:25;;;;;;;18.92;9.32;;;5.60;99.90;;;;;;5093616;28;20127;-78
2022/01/15 09:19:51;;;;;;;21.08;9.55;;;5.70;99.90;;;;;;5075760;28;20044;-78
2022/01/15 09:22:17;;;;;;;22.42;8.45;;;5.70;99.90;;;;;;5082911;28;20066;-78
2022/01/15 09:24:45;;;;;;;18.20;8.60;;;5.70;99.90;;;;;;5110929;28;20060;-78
2022/01/15 09:30:12;;;;;;;20.13;9.18;;;5.70;99.90;;;;;;5085827;28;20051;-81
2022/01/15 09:32:38;;;;;;;19.17;7.63;;;5.60;99.90;;;;;;5089179;28;20074;-80
2022/01/15 09:35:05;;;;;;;15.52;7.15;;;5.70;99.90;;;;;;5080943;28;20039;-79
2022/01/15 09:37:30;;;;;;;18.42;8.02;;;5.70;99.90;;;;;;5086625;28;20485;-79
2022/01/15 09:39:57;;;;;;;16.35;7.40;;;5.80;99.90;;;;;;5100337;28;20050;-77
2022/01/15 09:42:24;;;;;;;15.88;6.60;;;5.80;99.90;;;;;;5085483;28;20056;-75
2022/01/15 09:44:51;;;;;;;16.60;7.28;;;5.80;99.90;;;;;;5090364;28;20488;-76
2022/01/15 09:47:17;;;;;;;18.98;8.05;;;5.80;99.90;;;;;;5051352;28;20058;-79
2022/01/15 09:49:45;;;;;;;22.02;8.68;;;5.80;99.90;;;;;;5104519;28;20055;-79
2022/01/15 09:52:12;;;;;;;20.65;9.20;;;5.80;99.90;;;;;;5058733;28;20036;-78
2022/01/15 09:54:39;;;;;;;18.85;9.13;;;5.80;99.90;;;;;;5073566;28;20056;-80
2022/01/15 09:57:06;;;;;;;22.90;8.90;;;5.70;99.90;;;;;;5070056;28;20048;-79
2022/01/15 09:59:31;;;;;;;19.17;7.97;;;5.80;99.90;;;;;;5077409;28;20572;-78
2022/01/15 10:02:02;;;;;;;21.10;8.57;;;5.70;99.90;;;;;;5057127;28;20052;-79
2022/01/15 10:04:32;;;;;;;22.10;9.02;;;5.70;99.90;;;;;;5092232;28;20052;-78
2022/01/15 10:07:14;;;;;;;21.00;9.88;;;5.70;99.90;;;;;;5074361;28;20059;-78
2022/01/15 10:09:41;;;;;;;35.00;16.80;;;5.70;99.90;;;;;;5057888;28;20119;-77
2022/01/15 10:12:08;;;;;;;25.70;11.57;;;5.70;99.90;;;;;;5057240;28;20087;-77
2022/01/15 10:14:40;;;;;;;24.00;10.75;;;5.70;99.90;;;;;;5058054;28;20489;-78
2022/01/15 10:17:20;;;;;;;25.90;11.35;;;5.70;99.90;;;;;;5074132;28;20040;-78
2022/01/15 10:19:46;;;;;;;23.65;10.07;;;5.80;99.90;;;;;;5057474;28;20046;-78
2022/01/15 10:22:14;;;;;;;27.92;11.35;;;5.80;99.90;;;;;;5056929;28;20055;-78
2022/01/15 10:24:42;;;;;;;22.98;10.55;;;5.80;99.90;;;;;;5073509;28;20044;-78
2022/01/15 10:27:22;;;;;;;23.83;11.23;;;5.90;99.90;;;;;;5091130;28;20052;-79
2022/01/15 10:30:12;;;;;;;26.10;10.93;;;5.90;99.90;;;;;;5057372;28;20052;-78
2022/01/15 10:32:52;;;;;;;22.02;10.43;;;5.90;99.90;;;;;;5074266;28;20139;-78
2022/01/15 10:35:18;;;;;;;31.67;14.80;;;5.90;99.90;;;;;;5091704;28;20051;-78
2022/01/15 10:38:03;;;;;;;29.50;12.05;;;5.90;99.90;;;;;;5057180;28;20036;-77
2022/01/15 10:40:47;;;;;;;27.38;12.10;;;5.90;99.90;;;;;;5073643;28;20052;-77
2022/01/15 10:43:16;;;;;;;29.52;12.60;;;5.80;99.90;;;;;;5072874;28;20497;-78
2022/01/15 10:45:55;;;;;;;27.08;11.50;;;5.80;99.90;;;;;;5074031;28;20055;-78
2022/01/15 10:48:22;;;;;;;24.13;11.55;;;5.80;99.90;;;;;;5074535;28;20119;-74
2022/01/15 10:50:59;;;;;;;27.40;11.75;;;5.80;99.90;;;;;;5078785;28;20054;-79
2022/01/15 10:53:46;;;;;;;22.65;11.18;;;5.80;99.90;;;;;;5074490;28;20058;-77
2022/01/15 10:56:14;;;;;;;22.58;11.13;;;5.70;99.90;;;;;;5081676;28;20513;-78
2022/01/15 10:58:42;;;;;;;23.17;10.48;;;5.70;99.90;;;;;;5081546;28;20048;-77
2022/01/15 11:01:12;;;;;;;21.58;11.07;;;5.70;99.90;;;;;;5080975;28;20077;-81
2022/01/15 11:03:46;;;;;;;21.60;11.25;;;5.70;99.90;;;;;;5088500;28;20114;-80
2022/01/15 11:06:11;;;;;;;24.30;11.07;;;5.70;99.90;;;;;;5072424;28;20538;-81
2022/01/15 11:08:39;;;;;;;22.10;10.60;;;5.80;99.90;;;;;;5073487;28;20051;-77
2022/01/15 11:11:14;;;;;;;22.90;11.77;;;5.80;99.90;;;;;;5108184;28;20042;-76
2022/01/15 11:13:42;;;;;;;22.70;11.70;;;5.80;99.90;;;;;;5081698;28;20137;-77
2022/01/15 11:16:13;;;;;;;20.85;11.35;;;5.80;99.90;;;;;;5073413;28;20067;-77
2022/01/15 11:18:41;;;;;;;21.75;10.98;;;5.80;99.90;;;;;;5058123;28;20395;-77
2022/01/15 11:21:11;;;;;;;22.58;11.63;;;5.80;99.90;;;;;;5077235;28;20132;-78
2022/01/15 11:23:38;;;;;;;23.17;11.18;;;5.70;99.90;;;;;;5079285;28;20031;-77
2022/01/15 11:26:26;;;;;;;22.75;11.50;;;5.70;99.90;;;;;;5065314;28;20040;-77
2022/01/15 11:28:53;;;;;;;23.05;12.25;;;5.70;99.90;;;;;;5080382;28;20132;-77
2022/01/15 11:31:25;;;;;;;23.00;12.25;;;5.80;99.90;;;;;;5080326;28;20067;-77
2022/01/15 11:33:53;;;;;;;24.33;12.45;;;5.80;99.90;;;;;;5086234;28;20052;-76
2022/01/15 11:36:39;;;;;;;25.05;13.52;;;5.80;99.90;;;;;;5079553;28;20439;-77
2022/01/15 11:39:12;;;;;;;27.33;13.68;;;5.80;99.90;;;;;;5098582;28;20059;-76
2022/01/15 11:41:43;;;;;;;26.70;13.45;;;5.80;99.90;;;;;;5080605;28;20047;-77
2022/01/15 11:44:13;;;;;;;27.10;14.18;;;5.70;99.90;;;;;;5056459;28;20043;-76
2022/01/15 11:46:42;;;;;;;28.73;15.70;;;5.70;99.90;;;;;;5082296;28;20050;-76
2022/01/15 11:49:30;;;;;;;28.00;14.30;;;5.70;99.90;;;;;;5082949;28;20051;-78
2022/01/15 11:52:08;;;;;;;27.23;13.82;;;5.70;99.90;;;;;;5072563;28;20123;-77
2022/01/15 11:54:38;;;;;;;28.30;15.00;;;5.70;99.90;;;;;;5066186;28;20044;-76
2022/01/15 11:57:23;;;;;;;30.13;14.23;;;5.70;99.90;;;;;;5078434;28;20098;-76
2022/01/15 11:59:55;;;;;;;29.45;13.57;;;5.70;99.90;;;;;;5082945;28;20378;-76
2022/01/15 12:02:28;;;;;;;29.50;14.82;;;5.70;99.90;;;;;;5076521;28;20059;-76
2022/01/15 12:04:54;;;;;;;28.33;14.93;;;5.70;99.90;;;;;;5086583;28;20135;-77
2022/01/15 12:07:21;;;;;;;31.50;15.50;;;5.70;99.90;;;;;;5067692;28;20130;-77
2022/01/15 12:09:52;;;;;;;28.83;14.70;;;5.70;99.90;;;;;;5081601;28;20055;-77
2022/01/15 12:12:24;;;;;;;31.33;16.20;;;5.70;99.90;;;;;;5073422;28;20055;-81
2022/01/15 12:14:53;;;;;;;32.75;15.95;;;5.70;99.90;;;;;;5092552;28;20088;-76
2022/01/15 12:17:39;;;;;;;34.17;15.77;;;5.80;99.90;;;;;;5087395;28;20141;-81
2022/01/15 12:20:26;;;;;;;33.10;15.68;;;5.80;99.90;;;;;;5075792;28;20476;-76
2022/01/15 12:22:56;;;;;;;;;;;5.80;99.90;;;;;;5088360;28;20087;-76
2022/01/15 12:25:21;;;;;;;31.30;15.52;;;5.70;99.90;;;;;;5105149;28;19931;-80
2022/01/15 12:27:58;;;;;;;32.65;16.63;;;5.70;99.90;;;;;;5067334;28;20048;-77
2022/01/15 12:30:28;;;;;;;36.75;18.58;;;5.80;99.90;;;;;;5093497;28;20128;-76
2022/01/15 12:33:02;;;;;;;34.90;17.25;;;5.70;99.90;;;;;;5095959;28;20082;-77
2022/01/15 12:35:31;;;;;;;36.58;17.30;;;5.70;99.90;;;;;;5086091;28;20111;-77
2022/01/15 12:38:15;;;;;;;34.70;16.38;;;5.70;99.90;;;;;;5087463;28;20365;-77
2022/01/15 12:40:44;;;;;;;37.75;17.73;;;5.70;99.90;;;;;;5103382;28;20576;-78
2022/01/15 12:43:21;;;;;;;41.53;19.00;;;5.70;99.90;;;;;;5086363;28;20537;-77
2022/01/15 12:45:50;;;;;;;34.45;17.27;;;5.70;99.90;;;;;;5079700;28;20768;-77
2022/01/15 12:48:18;;;;;;;31.90;16.65;;;5.70;99.90;;;;;;5096723;28;20512;-77
2022/01/15 12:50:47;;;;;;;35.78;17.00;;;5.70;99.90;;;;;;5072448;28;20042;-77
2022/01/15 12:53:14;;;;;;;34.92;16.60;;;5.70;99.90;;;;;;5090788;28;20083;-78
2022/01/15 12:55:40;;;;;;;31.92;15.95;;;5.70;99.90;;;;;;5059198;28;20040;-78
2022/01/15 12:58:08;;;;;;;33.15;16.33;;;5.70;99.90;;;;;;5083555;28;20059;-76
2022/01/15 13:00:36;;;;;;;34.47;16.92;;;5.60;99.90;;;;;;5091196;28;20551;-75
2022/01/15 13:03:06;;;;;;;39.03;19.23;;;5.60;99.90;;;;;;5075932;28;20044;-76
2022/01/15 13:05:38;;;;;;;37.88;18.15;;;5.60;99.90;;;;;;5080279;28;20052;-75
2022/01/15 13:08:10;;;;;;;33.47;16.83;;;5.60;99.90;;;;;;5055802;28;20083;-78
2022/01/15 13:10:54;;;;;;;35.13;18.08;;;5.70;99.90;;;;;;5090359;28;20770;-75
2022/01/15 13:13:25;;;;;;;36.75;18.27;;;5.70;99.90;;;;;;5075478;28;20070;-76